Latest Weather Observations for Hindmarsh Island

IDS60801

Issued at 2:31 pm CST Monday 23 September 2019 (issued every 10 minutes, with the page automatically refreshed every 10 minutes)

About weather observations | Map of weather stations | Latest weather observations for SA | Other Formats
Station Details ID: 023894 Name: HINDMARSH ISLAND AWS Lat: -35.52 Lon: 138.82 Height: 11.0 m
Data from the previous 72 hours. | See also: Recent months at Hindmarsh Island
Date/Time
CST
Temp
°C
App
Temp
°C
Dew
Point
°C
Rel
Hum
%
Delta-T
°C
Wind Press
QNH
hPa
Press
MSL
hPa
Rain since
9am
mm
Dir  Spd
km/h
Gust
km/h
Spd
kts
Gust
kts
23/02:00pm 13.9 8.9 6.5 61 3.6 SW 22 26 12 14 1029.5 1029.5 0.0
23/01:30pm 13.1 7.7 6.5 64 3.1 SW 24 30 13 16 1029.8 1029.8 0.0
23/01:00pm 13.1 7.2 7.5 69 2.7 SW 28 37 15 20 1029.7 1029.7 0.0
23/12:30pm 14.7 9.5 5.5 54 4.3 SSW 22 28 12 15 1029.8 1029.8 0.0
23/12:00pm 15.4 10.4 4.8 49 4.9 SW 20 30 11 16 1029.8 1029.8 0.0
23/11:30am 14.4 9.5 5.2 54 4.3 SW 20 24 11 13 1030.0 1030.0 0.0
23/11:00am 13.7 7.9 6.1 60 3.6 SW 26 32 14 17 1030.0 1030.0 0.0
23/10:30am 14.0 8.5 5.9 58 3.8 SW 24 30 13 16 1029.9 1029.9 0.0
23/10:00am 14.4 8.5 5.7 56 4.1 SW 26 32 14 17 1029.8 1029.8 0.0
23/09:30am 13.8 7.9 5.9 59 3.7 SW 26 33 14 18 1029.8 1029.8 0.0
23/09:00am 13.3 8.6 6.2 62 3.4 WSW 20 32 11 17 1029.8 1029.8 2.8
23/08:30am 12.4 7.5 5.3 62 3.3 WSW 20 30 11 16 1029.6 1029.6 2.8
23/08:00am 11.7 6.2 5.8 67 2.7 WSW 24 28 13 15 1029.2 1029.2 2.8
23/07:30am 11.2 6.4 5.7 69 2.5 W 20 28 11 15 1029.0 1029.0 2.8
23/07:00am 10.6 5.5 6.0 73 2.1 W 22 30 12 16 1028.7 1028.7 2.8
23/06:30am 9.9 4.7 5.3 73 2.1 W 22 32 12 17 1028.3 1028.3 2.8
23/06:00am 10.0 4.4 5.4 73 2.1 W 24 32 13 17 1027.8 1027.8 2.8
23/05:30am 10.1 4.9 5.3 72 2.2 W 22 30 12 16 1027.4 1027.4 2.8
23/05:00am 9.5 4.8 5.3 75 1.9 WNW 19 26 10 14 1026.9 1026.9 2.8
23/04:30am 9.7 4.9 5.7 76 1.8 WNW 20 26 11 14 1026.8 1026.8 2.8
23/04:00am 9.6 4.4 5.4 75 1.9 WNW 22 30 12 16 1026.4 1026.4 2.8
23/03:30am 9.5 4.3 5.3 75 1.9 W 22 28 12 15 1026.0 1026.0 2.8
23/03:00am 9.3 4.1 5.3 76 1.8 WNW 22 28 12 15 1025.8 1025.8 2.8
23/02:30am 9.2 4.3 5.2 76 1.8 WNW 20 28 11 15 1025.8 1025.8 2.8
23/02:00am 9.2 4.3 5.2 76 1.8 WNW 20 26 11 14 1025.7 1025.7 2.8
23/01:30am 9.3 4.6 5.3 76 1.8 WNW 19 26 10 14 1025.7 1025.7 2.8
23/01:00am 9.5 4.6 5.1 74 2.0 WNW 20 26 11 14 1025.5 1025.5 2.8
23/12:30am 9.6 4.4 5.6 76 1.8 WNW 22 30 12 16 1025.7 1025.7 2.8
23/12:00am 9.4 4.2 5.6 77 1.7 WNW 22 30 12 16 1025.6 1025.6 2.8
 
Date/Time
CST
Temp
°C
App
Temp
°C
Dew
Point
°C
Rel
Hum
%
Delta-T
°C
Wind Press
QNH
hPa
Press
MSL
hPa
Rain since
9am
mm
Dir  Spd
km/h
Gust
km/h
Spd
kts
Gust
kts
22/11:30pm 9.7 4.9 5.7 76 1.8 WNW 20 28 11 15 1025.4 1025.4 2.8
22/11:00pm 9.7 5.0 5.9 77 1.7 WNW 20 28 11 15 1025.3 1025.3 2.8
22/10:30pm 9.5 5.3 5.9 78 1.6 WNW 17 24 9 13 1025.3 1025.3 2.8
22/10:00pm 9.6 4.9 6.0 78 1.7 WNW 20 26 11 14 1025.1 1025.1 2.8
22/09:30pm 9.9 5.3 6.4 79 1.6 WNW 20 28 11 15 1024.8 1024.8 2.8
22/09:00pm 9.7 5.2 6.2 79 1.6 WNW 19 26 10 14 1024.6 1024.6 2.8
22/08:30pm 9.9 4.8 6.1 77 1.7 W 22 30 12 16 1024.3 1024.3 2.8
22/08:00pm 10.1 4.4 6.6 79 1.6 W 26 41 14 22 1024.4 1024.4 2.6
22/07:56pm 9.8 4.4 6.2 78 1.7 W 24 41 13 22 1024.3 1024.3 2.6
22/07:30pm 10.2 6.2 6.7 79 1.6 WNW 17 22 9 12 1023.9 1023.9 1.8
22/07:00pm 10.6 5.7 7.1 79 1.7 WNW 22 33 12 18 1023.3 1023.3 1.6
22/06:30pm 10.6 7.9 7.3 80 1.6 NW 11 17 6 9 1023.1 1023.1 1.0
22/06:00pm 10.8 6.9 7.3 79 1.7 NW 17 20 9 11 1023.0 1023.0 0.4
22/05:30pm 11.2 7.0 7.5 78 1.8 NW 19 24 10 13 1022.8 1022.8 0.2
22/05:00pm 11.5 5.9 7.0 74 2.1 WNW 26 35 14 19 1022.6 1022.6 0.2
22/04:30pm 11.8 6.1 6.5 70 2.5 NW 26 35 14 19 1022.7 1022.7 0.0
22/04:00pm 13.0 7.8 7.2 68 2.8 NW 24 30 13 16 1022.5 1022.5 0.0
22/03:30pm 12.1 4.8 7.0 71 2.4 WNW 35 50 19 27 1022.5 1022.5 0.0
22/03:13pm 13.2 6.8 5.4 59 3.6 NW 28 48 15 26 1022.2 1022.2 0.0
22/03:00pm 13.6 6.5 5.5 58 3.8 NW 32 46 17 25 1022.3 1022.3 0.0
22/02:30pm 14.4 7.6 5.0 53 4.4 NW 30 48 16 26 1022.4 1022.4 0.0
22/02:14pm 14.4 7.1 4.7 52 4.5 NW 32 50 17 27 1022.4 1022.4 0.0
22/02:00pm 14.7 8.4 5.8 55 4.2 NW 28 41 15 22 1022.6 1022.6 0.0
22/01:30pm 14.7 8.0 5.5 54 4.3 NW 30 39 16 21 1022.8 1022.8 0.0
22/01:00pm 13.2 5.9 5.6 60 3.6 NW 33 46 18 25 1023.1 1023.1 0.0
22/12:31pm 14.1 7.6 4.9 54 4.3 NW 28 48 15 26 1023.1 1023.1 0.0
22/12:30pm 14.8 8.5 5.6 54 4.3 NW 28 41 15 22 1023.2 1023.2 0.0
22/12:00pm 14.5 8.1 5.3 54 4.3 WNW 28 41 15 22 1023.4 1023.4 0.0
22/11:30am 14.7 7.8 4.4 50 4.7 NW 30 41 16 22 1023.6 1023.6 0.0
22/11:00am 14.0 7.1 4.6 53 4.3 NW 30 41 16 22 1023.7 1023.7 0.0
22/10:30am 13.2 6.8 5.1 58 3.7 WNW 28 39 15 21 1023.8 1023.8 0.0
22/10:00am 12.9 7.6 4.8 58 3.7 NW 22 37 12 20 1023.9 1023.9 0.0
22/09:30am 12.3 6.7 5.5 63 3.1 NW 24 33 13 18 1024.1 1024.1 0.0
22/09:00am 11.0 9.5 6.6 74 2.1 W 4 7 2 4 1024.2 1024.2 1.4
22/08:30am 10.4 7.5 6.4 76 1.9 WSW 11 19 6 10 1024.2 1024.2 1.4
22/08:00am 10.4 7.9 6.4 76 1.9 NNW 9 15 5 8 1024.1 1024.1 1.4
22/07:30am 9.9 7.3 5.9 76 1.8 NNW 9 11 5 6 1023.6 1023.6 1.4
22/07:00am 8.3 5.1 5.1 80 1.4 N 11 15 6 8 1023.5 1023.5 1.4
22/06:30am 7.9 4.7 5.0 82 1.3 NW 11 13 6 7 1023.2 1023.2 1.4
22/06:00am 8.1 4.9 5.0 81 1.4 NNW 11 15 6 8 1023.0 1023.0 1.4
22/05:30am 8.6 4.7 5.4 80 1.4 NW 15 20 8 11 1022.5 1022.5 1.4
22/05:00am 8.2 4.1 4.6 78 1.6 NW 15 19 8 10 1022.4 1022.4 1.2
22/04:30am 7.2 3.0 4.0 80 1.4 NNW 15 19 8 10 1022.2 1022.2 1.2
22/04:00am 7.0 3.2 3.8 80 1.4 NNW 13 15 7 8 1021.8 1021.8 1.2
22/03:30am 7.3 3.5 4.1 80 1.4 NNW 13 15 7 8 1021.8 1021.8 1.2
22/03:00am 7.2 3.5 4.3 82 1.2 N 13 15 7 8 1022.0 1022.0 1.2
22/02:30am 7.6 4.6 4.0 78 1.5 NW 9 11 5 6 1022.0 1022.0 1.2
22/02:00am 7.5 4.1 3.9 78 1.5 NNW 11 13 6 7 1022.1 1022.1 1.2
22/01:30am 7.9 4.5 4.1 77 1.6 NW 11 15 6 8 1022.2 1022.2 1.2
22/01:00am 7.9 4.6 4.3 78 1.6 NW 11 13 6 7 1022.4 1022.4 1.2
22/12:30am 7.9 4.1 3.9 76 1.7 NW 13 17 7 9 1022.6 1022.6 1.2
22/12:00am 7.8 4.0 3.8 76 1.7 NW 13 15 7 8 1022.6 1022.6 1.2
 
Date/Time
CST
Temp
°C
App
Temp
°C
Dew
Point
°C
Rel
Hum
%
Delta-T
°C
Wind Press
QNH
hPa
Press
MSL
hPa
Rain since
9am
mm
Dir  Spd
km/h
Gust
km/h
Spd
kts
Gust
kts
21/11:30pm 7.5 3.7 3.7 77 1.6 NW 13 15 7 8 1022.4 1022.4 1.2
21/11:00pm 7.7 4.3 4.1 78 1.6 NW 11 13 6 7 1022.3 1022.3 1.2
21/10:30pm 8.0 4.7 4.4 78 1.6 WNW 11 13 6 7 1022.3 1022.3 1.2
21/10:00pm 8.2 4.9 4.4 77 1.7 NW 11 15 6 8 1022.3 1022.3 1.2
21/09:30pm 8.5 5.2 4.7 77 1.7 WNW 11 13 6 7 1022.2 1022.2 1.2
21/09:00pm 8.4 5.1 4.8 78 1.6 NW 11 13 6 7 1022.1 1022.1 1.2
21/08:30pm 8.6 5.8 5.0 78 1.6 WNW 9 13 5 7 1022.0 1022.0 1.2
21/08:00pm 9.2 6.5 5.4 77 1.7 WNW 9 13 5 7 1021.8 1021.8 1.2
21/07:30pm 10.3 6.5 5.7 73 2.1 WSW 15 19 8 10 1021.5 1021.5 1.2
21/07:00pm 10.1 6.7 5.7 74 2.0 WSW 13 15 7 8 1021.2 1021.2 1.2
21/06:30pm 10.0 5.8 5.6 74 2.0 SW 17 22 9 12 1021.0 1021.0 1.2
21/06:00pm 10.3 5.5 5.7 73 2.1 SW 20 24 11 13 1020.6 1020.6 1.2
21/05:30pm 10.9 5.8 5.9 71 2.3 SW 22 32 12 17 1020.3 1020.3 1.2
21/05:00pm 11.4 6.5 5.3 66 2.8 SW 20 26 11 14 1019.9 1019.9 1.2
21/04:30pm 11.5 6.2 4.9 64 3.0 SW 22 28 12 15 1019.5 1019.5 1.2
21/04:00pm 12.7 7.2 5.8 63 3.2 SW 24 30 13 16 1019.0 1019.0 1.2
21/03:30pm 12.6 7.2 6.2 65 3.0 WSW 24 32 13 17 1018.8 1018.8 1.2
21/03:00pm 12.4 6.3 6.7 68 2.7 SW 28 37 15 20 1018.7 1018.7 1.2
21/02:30pm 12.5 6.9 7.2 70 2.6 SW 26 32 14 17 1018.4 1018.4 1.2
21/02:00pm 10.6 3.8 6.7 77 1.8 WSW 32 44 17 24 1018.6 1018.6 1.0
21/01:34pm 12.9 5.6 5.3 60 3.5 SW 33 59 18 32 1018.1 1018.1 1.0
21/01:30pm 14.1 6.9 5.2 55 4.2 SW 32 39 17 21 1018.0 1018.0 1.0
21/01:00pm 14.3 7.1 5.7 56 4.1 SW 33 43 18 23 1017.6 1017.6 1.0
21/12:30pm 13.9 6.6 7.2 64 3.3 SW 35 44 19 24 1017.3 1017.3 1.0
21/12:00pm 13.3 5.7 7.5 68 2.8 SW 37 46 20 25 1017.1 1017.1 1.0
21/11:30am 12.8 5.6 7.7 71 2.5 SW 35 43 19 23 1016.6 1016.6 1.0
21/11:00am 11.5 5.4 8.2 80 1.6 SW 30 44 16 24 1016.5 1016.5 1.0
21/10:41am 11.2 4.4 7.1 76 2.0 SW 32 54 17 29 1016.4 1016.4 0.6
21/10:30am 12.3 5.6 8.2 76 2.0 SW 33 43 18 23 1016.3 1016.3 0.4
21/10:00am 11.3 3.8 7.8 79 1.7 SW 37 48 20 26 1015.9 1015.9 0.4
21/09:30am 11.1 3.3 8.1 82 1.5 SW 39 46 21 25 1015.7 1015.7 0.4
21/09:01am 10.4 2.8 7.5 82 1.4 WSW 37 56 20 30 1015.1 1015.1 0.0
21/09:00am 10.3 3.0 7.4 82 1.4 WSW 35 52 19 28 1015.1 1015.1 17.2
21/08:30am 11.4 4.6 6.9 74 2.1 WSW 32 43 17 23 1014.5 1014.5 17.0
21/08:00am 11.5 5.9 7.2 75 2.1 WSW 26 35 14 19 1014.1 1014.1 17.0
21/07:30am 10.7 5.7 6.6 76 1.9 WNW 22 30 12 16 1013.8 1013.8 17.0
21/07:00am 10.3 5.8 6.8 79 1.6 W 20 30 11 16 1013.5 1013.5 17.0
21/06:30am 9.6 5.6 6.7 82 1.4 WNW 17 20 9 11 1012.9 1012.9 17.0
21/06:00am 9.3 6.0 6.4 82 1.3 WNW 13 17 7 9 1012.5 1012.5 17.0
21/05:30am 9.6 6.3 6.3 80 1.5 WNW 13 17 7 9 1012.2 1012.2 17.0
21/05:00am 9.6 5.1 6.0 78 1.7 NW 19 22 10 12 1011.8 1011.8 17.0
21/04:30am 10.1 5.0 6.1 76 1.9 WNW 22 32 12 17 1011.3 1011.3 17.0
21/04:00am 9.7 5.7 6.6 81 1.4 WNW 17 22 9 12 1011.4 1011.4 17.0
21/03:30am 9.6 5.9 6.5 81 1.4 WNW 15 19 8 10 1011.4 1011.4 17.0
21/03:00am 9.8 5.7 6.2 78 1.7 WNW 17 22 9 12 1011.5 1011.5 17.0
21/02:30am 10.1 5.5 6.4 78 1.7 W 20 26 11 14 1011.3 1011.3 17.0
21/02:00am 10.0 6.1 7.3 83 1.3 W 17 22 9 12 1011.3 1011.3 17.0
21/01:30am 10.1 6.3 7.7 85 1.2 W 17 22 9 12 1012.1 1012.1 17.0
21/01:00am 10.4 5.0 7.8 84 1.3 WSW 26 39 14 21 1011.9 1011.9 17.0
21/12:30am 10.1 3.5 7.7 85 1.2 SW 32 44 17 24 1012.0 1012.0 16.8
21/12:00am 9.9 3.3 7.8 87 1.0 WSW 32 43 17 23 1011.8 1011.8 16.4
 
Date/Time
CST
Temp
°C
App
Temp
°C
Dew
Point
°C
Rel
Hum
%
Delta-T
°C
Wind Press
QNH
hPa
Press
MSL
hPa
Rain since
9am
mm
Dir  Spd
km/h
Gust
km/h
Spd
kts
Gust
kts
20/11:30pm 10.7 4.3 8.5 86 1.1 WSW 32 50 17 27 1011.9 1011.9 15.2
20/11:27pm 11.2 5.7 9.1 87 1.0 WSW 28 46 15 25 1011.8 1011.8 15.0
20/11:26pm 11.5 6.1 9.6 88 1.0 WSW 28 43 15 23 1011.8 1011.8 15.0
20/11:00pm 11.5 9.7 9.4 87 1.1 W 9 11 5 6 1011.8 1011.8 14.8
20/10:30pm 11.5 9.3 9.4 87 1.1 WNW 11 15 6 8 1012.5 1012.5 14.8
20/10:00pm 11.5 9.7 9.4 87 1.1 NNW 9 13 5 7 1012.9 1012.9 14.2
20/09:30pm 11.6 9.0 9.3 86 1.2 NW 13 17 7 9 1012.7 1012.7 12.4
20/09:00pm 11.6 8.6 9.3 86 1.2 WNW 15 20 8 11 1012.8 1012.8 10.8
20/08:30pm 11.5 8.1 9.2 86 1.2 W 17 22 9 12 1012.9 1012.9 9.0
20/08:00pm 11.8 8.1 9.5 86 1.2 W 19 26 10 14 1013.4 1013.4 7.0
20/07:30pm 12.2 8.4 9.9 86 1.2 W 20 28 11 15 1013.5 1013.5 4.6
20/07:00pm 12.0 8.2 9.7 86 1.2 WSW 20 26 11 14 1012.5 1012.5 3.0
20/06:30pm 12.4 8.8 9.8 84 1.3 W 19 26 10 14 1013.5 1013.5 1.2
20/06:00pm 12.6 8.0 9.8 83 1.4 WSW 24 33 13 18 1013.0 1013.0 0.2
20/05:30pm 14.0 10.0 9.0 72 2.5 W 20 30 11 16 1012.7 1012.7 0.0
20/05:00pm 14.5 10.5 8.9 69 2.8 WNW 20 28 11 15 1012.5 1012.5 0.0
20/04:30pm 15.1 11.0 8.8 66 3.2 WNW 20 30 11 16 1012.1 1012.1 0.0
20/04:00pm 15.3 10.8 10.1 71 2.7 WSW 24 32 13 17 1011.8 1011.8 0.0
20/03:30pm 15.2 11.8 11.4 78 2.0 SW 20 24 11 13 1011.9 1011.9 0.0
20/03:00pm 16.0 12.3 11.4 74 2.5 SW 22 28 12 15 1011.8 1011.8 0.0

Other formats

Comma delimited format used in spreadsheet applications
http://www.bom.gov.au/fwo/IDS60801/IDS60801.94677.axf

JavaScript Object Notation format (JSON) in row-major order
http://www.bom.gov.au/fwo/IDS60801/IDS60801.94677.json

Data quality

Most of these data are generated automatically and are frequently updated. Quality checks on data are not normally performed. It is possible for incorrect values to appear. Refer to information at About Latest Weather Observations and please check the disclaimer before using these data.